sensor_id;sensor_type;location;lat;lon;timestamp;P1;durP1;ratioP1;P2;durP2;ratioP2
43363;SDS011;40636;52.424;-1.948;2023-08-21T00:01:46;2.58;;;1.10;;
43363;SDS011;40636;52.424;-1.948;2023-08-21T00:04:12;5.30;;;1.02;;
43363;SDS011;40636;52.424;-1.948;2023-08-21T00:06:39;3.15;;;1.20;;
43363;SDS011;40636;52.424;-1.948;2023-08-21T00:09:06;2.08;;;1.08;;
43363;SDS011;40636;52.424;-1.948;2023-08-21T00:11:33;7.00;;;1.17;;
43363;SDS011;40636;52.424;-1.948;2023-08-21T00:14:00;4.65;;;1.98;;
43363;SDS011;40636;52.424;-1.948;2023-08-21T00:16:26;2.95;;;2.20;;
43363;SDS011;40636;52.424;-1.948;2023-08-21T00:18:55;6.30;;;2.08;;
43363;SDS011;40636;52.424;-1.948;2023-08-21T00:21:22;2.60;;;1.30;;
43363;SDS011;40636;52.424;-1.948;2023-08-21T00:23:48;3.40;;;1.60;;
43363;SDS011;40636;52.424;-1.948;2023-08-21T00:26:15;3.55;;;1.45;;
43363;SDS011;40636;52.424;-1.948;2023-08-21T00:28:42;3.17;;;1.52;;
43363;SDS011;40636;52.424;-1.948;2023-08-21T00:31:09;3.05;;;1.60;;
43363;SDS011;40636;52.424;-1.948;2023-08-21T00:33:36;2.55;;;1.30;;
43363;SDS011;40636;52.424;-1.948;2023-08-21T00:36:03;3.35;;;1.05;;
43363;SDS011;40636;52.424;-1.948;2023-08-21T00:38:30;8.45;;;2.08;;
43363;SDS011;40636;52.424;-1.948;2023-08-21T00:40:57;2.58;;;1.60;;
43363;SDS011;40636;52.424;-1.948;2023-08-21T00:43:24;5.55;;;2.35;;
43363;SDS011;40636;52.424;-1.948;2023-08-21T00:45:50;2.85;;;1.27;;
43363;SDS011;40636;52.424;-1.948;2023-08-21T00:48:18;5.13;;;1.55;;
43363;SDS011;40636;52.424;-1.948;2023-08-21T00:50:46;3.97;;;1.67;;
43363;SDS011;40636;52.424;-1.948;2023-08-21T00:53:13;4.53;;;1.80;;
43363;SDS011;40636;52.424;-1.948;2023-08-21T00:55:40;2.25;;;1.10;;
43363;SDS011;40636;52.424;-1.948;2023-08-21T00:58:08;3.60;;;1.30;;
43363;SDS011;40636;52.424;-1.948;2023-08-21T01:00:39;2.25;;;1.73;;
43363;SDS011;40636;52.424;-1.948;2023-08-21T01:03:06;3.03;;;1.52;;
43363;SDS011;40636;52.424;-1.948;2023-08-21T01:05:34;4.75;;;2.13;;
43363;SDS011;40636;52.424;-1.948;2023-08-21T01:08:02;4.50;;;2.25;;
43363;SDS011;40636;52.424;-1.948;2023-08-21T01:10:42;4.50;;;1.60;;
43363;SDS011;40636;52.424;-1.948;2023-08-21T01:16:04;7.45;;;2.95;;
43363;SDS011;40636;52.424;-1.948;2023-08-21T01:18:33;3.10;;;1.52;;
43363;SDS011;40636;52.424;-1.948;2023-08-21T01:21:02;10.77;;;1.98;;
43363;SDS011;40636;52.424;-1.948;2023-08-21T01:23:31;2.80;;;1.65;;
43363;SDS011;40636;52.424;-1.948;2023-08-21T01:25:59;4.15;;;1.80;;
43363;SDS011;40636;52.424;-1.948;2023-08-21T01:28:25;6.72;;;1.77;;
43363;SDS011;40636;52.424;-1.948;2023-08-21T01:30:54;5.85;;;1.98;;
43363;SDS011;40636;52.424;-1.948;2023-08-21T01:33:27;4.97;;;1.80;;
43363;SDS011;40636;52.424;-1.948;2023-08-21T01:36:00;5.70;;;2.35;;
43363;SDS011;40636;52.424;-1.948;2023-08-21T01:38:31;5.72;;;1.95;;
43363;SDS011;40636;52.424;-1.948;2023-08-21T01:40:59;2.63;;;1.48;;
43363;SDS011;40636;52.424;-1.948;2023-08-21T01:43:26;4.90;;;2.05;;
43363;SDS011;40636;52.424;-1.948;2023-08-21T01:45:53;4.20;;;1.88;;
43363;SDS011;40636;52.424;-1.948;2023-08-21T01:48:19;3.10;;;2.22;;
43363;SDS011;40636;52.424;-1.948;2023-08-21T01:50:46;4.57;;;1.90;;
43363;SDS011;40636;52.424;-1.948;2023-08-21T01:53:13;3.88;;;1.67;;
43363;SDS011;40636;52.424;-1.948;2023-08-21T01:55:40;5.18;;;2.10;;
43363;SDS011;40636;52.424;-1.948;2023-08-21T01:58:06;6.32;;;2.30;;
43363;SDS011;40636;52.424;-1.948;2023-08-21T02:00:33;9.50;;;2.60;;
43363;SDS011;40636;52.424;-1.948;2023-08-21T02:03:00;4.97;;;2.33;;
43363;SDS011;40636;52.424;-1.948;2023-08-21T02:05:27;8.93;;;2.00;;
43363;SDS011;40636;52.424;-1.948;2023-08-21T02:07:54;3.92;;;2.15;;
43363;SDS011;40636;52.424;-1.948;2023-08-21T02:10:21;4.72;;;1.90;;
43363;SDS011;40636;52.424;-1.948;2023-08-21T02:12:49;5.13;;;2.13;;
43363;SDS011;40636;52.424;-1.948;2023-08-21T02:15:16;5.97;;;2.28;;
43363;SDS011;40636;52.424;-1.948;2023-08-21T02:17:43;7.72;;;2.55;;
43363;SDS011;40636;52.424;-1.948;2023-08-21T02:20:10;6.47;;;2.10;;
43363;SDS011;40636;52.424;-1.948;2023-08-21T02:22:37;8.48;;;2.65;;
43363;SDS011;40636;52.424;-1.948;2023-08-21T02:25:04;7.10;;;2.47;;
43363;SDS011;40636;52.424;-1.948;2023-08-21T02:27:31;5.82;;;2.15;;
43363;SDS011;40636;52.424;-1.948;2023-08-21T02:29:58;5.90;;;2.10;;
43363;SDS011;40636;52.424;-1.948;2023-08-21T02:32:25;2.88;;;2.33;;
43363;SDS011;40636;52.424;-1.948;2023-08-21T02:34:51;5.15;;;2.15;;
43363;SDS011;40636;52.424;-1.948;2023-08-21T02:37:18;8.10;;;3.60;;
43363;SDS011;40636;52.424;-1.948;2023-08-21T02:39:45;4.63;;;2.35;;
43363;SDS011;40636;52.424;-1.948;2023-08-21T02:42:11;4.13;;;2.80;;
43363;SDS011;40636;52.424;-1.948;2023-08-21T02:44:38;5.38;;;2.22;;
43363;SDS011;40636;52.424;-1.948;2023-08-21T02:47:05;4.32;;;1.90;;
43363;SDS011;40636;52.424;-1.948;2023-08-21T02:49:32;4.75;;;2.35;;
43363;SDS011;40636;52.424;-1.948;2023-08-21T02:51:59;5.20;;;2.65;;
43363;SDS011;40636;52.424;-1.948;2023-08-21T02:54:25;6.35;;;2.17;;
43363;SDS011;40636;52.424;-1.948;2023-08-21T02:56:52;4.63;;;2.63;;
43363;SDS011;40636;52.424;-1.948;2023-08-21T02:59:19;3.65;;;2.10;;
43363;SDS011;40636;52.424;-1.948;2023-08-21T03:01:45;4.35;;;1.83;;
43363;SDS011;40636;52.424;-1.948;2023-08-21T03:04:12;4.45;;;2.08;;
43363;SDS011;40636;52.424;-1.948;2023-08-21T03:06:39;6.30;;;2.22;;
43363;SDS011;40636;52.424;-1.948;2023-08-21T03:09:06;6.50;;;1.88;;
43363;SDS011;40636;52.424;-1.948;2023-08-21T03:11:32;3.75;;;2.50;;
43363;SDS011;40636;52.424;-1.948;2023-08-21T03:13:59;6.65;;;1.95;;
43363;SDS011;40636;52.424;-1.948;2023-08-21T03:16:26;7.15;;;4.35;;
43363;SDS011;40636;52.424;-1.948;2023-08-21T03:18:53;7.47;;;2.17;;
43363;SDS011;40636;52.424;-1.948;2023-08-21T03:21:22;4.95;;;2.67;;
43363;SDS011;40636;52.424;-1.948;2023-08-21T03:23:59;5.50;;;2.80;;
43363;SDS011;40636;52.424;-1.948;2023-08-21T03:26:30;6.75;;;2.72;;
43363;SDS011;40636;52.424;-1.948;2023-08-21T03:28:56;6.30;;;3.63;;
43363;SDS011;40636;52.424;-1.948;2023-08-21T03:31:23;7.38;;;2.28;;
43363;SDS011;40636;52.424;-1.948;2023-08-21T03:33:50;5.15;;;2.40;;
43363;SDS011;40636;52.424;-1.948;2023-08-21T03:36:17;6.38;;;2.60;;
43363;SDS011;40636;52.424;-1.948;2023-08-21T03:38:45;6.80;;;2.85;;
43363;SDS011;40636;52.424;-1.948;2023-08-21T03:41:12;5.03;;;2.65;;
43363;SDS011;40636;52.424;-1.948;2023-08-21T03:43:39;4.35;;;2.47;;
43363;SDS011;40636;52.424;-1.948;2023-08-21T03:46:06;11.73;;;3.45;;
43363;SDS011;40636;52.424;-1.948;2023-08-21T03:48:32;4.65;;;2.90;;
43363;SDS011;40636;52.424;-1.948;2023-08-21T03:50:59;6.50;;;2.45;;
43363;SDS011;40636;52.424;-1.948;2023-08-21T03:53:26;4.95;;;2.63;;
43363;SDS011;40636;52.424;-1.948;2023-08-21T03:55:52;7.82;;;2.92;;
43363;SDS011;40636;52.424;-1.948;2023-08-21T03:58:19;5.75;;;2.83;;
43363;SDS011;40636;52.424;-1.948;2023-08-21T04:00:46;4.80;;;2.95;;
43363;SDS011;40636;52.424;-1.948;2023-08-21T04:03:13;3.20;;;2.38;;
43363;SDS011;40636;52.424;-1.948;2023-08-21T04:05:40;7.60;;;3.22;;
43363;SDS011;40636;52.424;-1.948;2023-08-21T04:08:06;12.23;;;4.40;;
43363;SDS011;40636;52.424;-1.948;2023-08-21T04:10:33;3.88;;;2.45;;
43363;SDS011;40636;52.424;-1.948;2023-08-21T04:13:00;7.18;;;3.17;;
43363;SDS011;40636;52.424;-1.948;2023-08-21T04:15:29;10.32;;;3.15;;
43363;SDS011;40636;52.424;-1.948;2023-08-21T04:17:56;13.63;;;3.78;;
43363;SDS011;40636;52.424;-1.948;2023-08-21T04:20:23;5.13;;;2.85;;
43363;SDS011;40636;52.424;-1.948;2023-08-21T04:22:50;7.28;;;3.50;;
43363;SDS011;40636;52.424;-1.948;2023-08-21T04:25:17;7.25;;;3.10;;
43363;SDS011;40636;52.424;-1.948;2023-08-21T04:27:43;9.10;;;3.88;;
43363;SDS011;40636;52.424;-1.948;2023-08-21T04:30:10;7.03;;;2.97;;
43363;SDS011;40636;52.424;-1.948;2023-08-21T04:32:38;6.18;;;3.08;;
43363;SDS011;40636;52.424;-1.948;2023-08-21T04:35:05;7.40;;;3.30;;
43363;SDS011;40636;52.424;-1.948;2023-08-21T04:37:37;5.43;;;3.42;;
43363;SDS011;40636;52.424;-1.948;2023-08-21T04:40:05;9.32;;;4.00;;
43363;SDS011;40636;52.424;-1.948;2023-08-21T04:42:32;6.75;;;3.78;;
43363;SDS011;40636;52.424;-1.948;2023-08-21T04:44:59;10.15;;;3.92;;
43363;SDS011;40636;52.424;-1.948;2023-08-21T04:47:26;7.43;;;3.92;;
43363;SDS011;40636;52.424;-1.948;2023-08-21T04:49:54;11.05;;;3.47;;
43363;SDS011;40636;52.424;-1.948;2023-08-21T04:52:22;4.43;;;2.92;;
43363;SDS011;40636;52.424;-1.948;2023-08-21T04:54:49;7.53;;;3.08;;
43363;SDS011;40636;52.424;-1.948;2023-08-21T04:57:17;5.30;;;3.28;;
43363;SDS011;40636;52.424;-1.948;2023-08-21T04:59:44;7.43;;;4.10;;
43363;SDS011;40636;52.424;-1.948;2023-08-21T05:02:11;7.40;;;3.50;;
43363;SDS011;40636;52.424;-1.948;2023-08-21T05:04:38;6.45;;;3.33;;
43363;SDS011;40636;52.424;-1.948;2023-08-21T05:07:05;6.28;;;3.60;;
43363;SDS011;40636;52.424;-1.948;2023-08-21T05:09:32;7.28;;;3.83;;
43363;SDS011;40636;52.424;-1.948;2023-08-21T05:12:01;8.95;;;3.97;;
43363;SDS011;40636;52.424;-1.948;2023-08-21T05:15:10;7.10;;;4.30;;
43363;SDS011;40636;52.424;-1.948;2023-08-21T05:17:37;7.35;;;3.45;;
43363;SDS011;40636;52.424;-1.948;2023-08-21T05:20:04;9.57;;;4.60;;
43363;SDS011;40636;52.424;-1.948;2023-08-21T05:22:31;8.90;;;4.15;;
43363;SDS011;40636;52.424;-1.948;2023-08-21T05:25:01;6.25;;;3.25;;
43363;SDS011;40636;52.424;-1.948;2023-08-21T05:27:27;8.90;;;4.35;;
43363;SDS011;40636;52.424;-1.948;2023-08-21T05:29:54;14.43;;;4.82;;
43363;SDS011;40636;52.424;-1.948;2023-08-21T05:32:21;10.75;;;4.55;;
43363;SDS011;40636;52.424;-1.948;2023-08-21T05:34:47;11.15;;;4.60;;
43363;SDS011;40636;52.424;-1.948;2023-08-21T05:37:17;7.22;;;4.55;;
43363;SDS011;40636;52.424;-1.948;2023-08-21T05:39:46;8.82;;;4.35;;
43363;SDS011;40636;52.424;-1.948;2023-08-21T05:42:15;6.63;;;3.63;;
43363;SDS011;40636;52.424;-1.948;2023-08-21T05:44:56;6.97;;;4.53;;
43363;SDS011;40636;52.424;-1.948;2023-08-21T05:47:23;8.45;;;3.75;;
43363;SDS011;40636;52.424;-1.948;2023-08-21T05:49:56;13.45;;;4.40;;
43363;SDS011;40636;52.424;-1.948;2023-08-21T05:52:32;8.93;;;4.75;;
43363;SDS011;40636;52.424;-1.948;2023-08-21T05:54:59;10.18;;;5.15;;
43363;SDS011;40636;52.424;-1.948;2023-08-21T05:57:26;13.15;;;5.03;;
43363;SDS011;40636;52.424;-1.948;2023-08-21T05:59:53;13.90;;;5.18;;
43363;SDS011;40636;52.424;-1.948;2023-08-21T06:02:19;11.48;;;5.60;;
43363;SDS011;40636;52.424;-1.948;2023-08-21T06:04:46;12.35;;;5.68;;
43363;SDS011;40636;52.424;-1.948;2023-08-21T06:07:13;10.52;;;4.45;;
43363;SDS011;40636;52.424;-1.948;2023-08-21T06:09:43;11.40;;;4.85;;
43363;SDS011;40636;52.424;-1.948;2023-08-21T06:12:12;14.82;;;5.32;;
43363;SDS011;40636;52.424;-1.948;2023-08-21T06:14:39;9.57;;;4.13;;
43363;SDS011;40636;52.424;-1.948;2023-08-21T06:17:06;10.10;;;5.35;;
43363;SDS011;40636;52.424;-1.948;2023-08-21T06:19:40;12.80;;;5.25;;
43363;SDS011;40636;52.424;-1.948;2023-08-21T06:22:18;13.52;;;4.82;;
43363;SDS011;40636;52.424;-1.948;2023-08-21T06:24:49;10.65;;;5.60;;
43363;SDS011;40636;52.424;-1.948;2023-08-21T06:27:16;14.43;;;5.63;;
43363;SDS011;40636;52.424;-1.948;2023-08-21T06:29:46;10.07;;;4.15;;
43363;SDS011;40636;52.424;-1.948;2023-08-21T06:32:13;12.13;;;4.90;;
43363;SDS011;40636;52.424;-1.948;2023-08-21T06:34:39;8.45;;;5.03;;
43363;SDS011;40636;52.424;-1.948;2023-08-21T06:37:06;8.73;;;3.97;;
43363;SDS011;40636;52.424;-1.948;2023-08-21T06:39:37;10.68;;;5.53;;
43363;SDS011;40636;52.424;-1.948;2023-08-21T06:42:04;7.07;;;3.72;;
43363;SDS011;40636;52.424;-1.948;2023-08-21T06:44:33;6.78;;;3.97;;
43363;SDS011;40636;52.424;-1.948;2023-08-21T06:47:06;22.27;;;4.68;;
43363;SDS011;40636;52.424;-1.948;2023-08-21T06:49:37;7.65;;;3.63;;
43363;SDS011;40636;52.424;-1.948;2023-08-21T06:52:09;6.63;;;4.57;;
43363;SDS011;40636;52.424;-1.948;2023-08-21T06:54:41;12.77;;;4.45;;
43363;SDS011;40636;52.424;-1.948;2023-08-21T06:57:09;8.50;;;4.13;;
43363;SDS011;40636;52.424;-1.948;2023-08-21T06:59:37;11.15;;;4.75;;
43363;SDS011;40636;52.424;-1.948;2023-08-21T07:02:07;9.80;;;4.68;;
43363;SDS011;40636;52.424;-1.948;2023-08-21T07:04:36;7.75;;;3.75;;
43363;SDS011;40636;52.424;-1.948;2023-08-21T07:07:03;8.05;;;3.83;;
43363;SDS011;40636;52.424;-1.948;2023-08-21T07:09:36;7.78;;;4.20;;
43363;SDS011;40636;52.424;-1.948;2023-08-21T07:12:03;8.32;;;3.55;;
43363;SDS011;40636;52.424;-1.948;2023-08-21T07:14:31;6.10;;;3.50;;
43363;SDS011;40636;52.424;-1.948;2023-08-21T07:17:00;6.80;;;3.42;;
43363;SDS011;40636;52.424;-1.948;2023-08-21T07:19:27;5.97;;;3.58;;
43363;SDS011;40636;52.424;-1.948;2023-08-21T07:21:58;7.15;;;3.03;;
43363;SDS011;40636;52.424;-1.948;2023-08-21T07:24:26;5.68;;;3.17;;
43363;SDS011;40636;52.424;-1.948;2023-08-21T07:27:06;11.73;;;5.70;;
43363;SDS011;40636;52.424;-1.948;2023-08-21T07:30:05;5.80;;;2.97;;
43363;SDS011;40636;52.424;-1.948;2023-08-21T07:32:35;9.20;;;2.70;;
43363;SDS011;40636;52.424;-1.948;2023-08-21T07:35:43;4.20;;;2.42;;
43363;SDS011;40636;52.424;-1.948;2023-08-21T07:38:10;8.82;;;3.00;;
43363;SDS011;40636;52.424;-1.948;2023-08-21T07:40:37;3.88;;;2.33;;
43363;SDS011;40636;52.424;-1.948;2023-08-21T07:43:18;4.75;;;2.25;;
43363;SDS011;40636;52.424;-1.948;2023-08-21T07:45:53;8.55;;;3.05;;
43363;SDS011;40636;52.424;-1.948;2023-08-21T07:55:04;8.10;;;2.53;;
43363;SDS011;40636;52.424;-1.948;2023-08-21T07:57:33;4.90;;;1.98;;
43363;SDS011;40636;52.424;-1.948;2023-08-21T08:00:11;4.70;;;2.22;;
43363;SDS011;40636;52.424;-1.948;2023-08-21T08:03:20;6.63;;;2.20;;
43363;SDS011;40636;52.424;-1.948;2023-08-21T08:05:55;7.80;;;1.60;;
43363;SDS011;40636;52.424;-1.948;2023-08-21T08:08:49;5.05;;;1.73;;
43363;SDS011;40636;52.424;-1.948;2023-08-21T08:15:47;7.43;;;2.08;;
43363;SDS011;40636;52.424;-1.948;2023-08-21T08:18:15;3.78;;;2.00;;
43363;SDS011;40636;52.424;-1.948;2023-08-21T08:20:45;4.22;;;1.60;;
43363;SDS011;40636;52.424;-1.948;2023-08-21T08:23:13;5.45;;;1.92;;
43363;SDS011;40636;52.424;-1.948;2023-08-21T08:25:40;4.55;;;1.88;;
43363;SDS011;40636;52.424;-1.948;2023-08-21T08:28:10;3.90;;;1.60;;
43363;SDS011;40636;52.424;-1.948;2023-08-21T08:30:44;4.82;;;2.28;;
43363;SDS011;40636;52.424;-1.948;2023-08-21T08:33:14;5.57;;;1.80;;
43363;SDS011;40636;52.424;-1.948;2023-08-21T08:35:43;5.05;;;2.22;;
43363;SDS011;40636;52.424;-1.948;2023-08-21T08:38:10;8.40;;;2.42;;
43363;SDS011;40636;52.424;-1.948;2023-08-21T08:40:43;7.15;;;2.45;;
43363;SDS011;40636;52.424;-1.948;2023-08-21T08:43:11;4.72;;;3.05;;
43363;SDS011;40636;52.424;-1.948;2023-08-21T08:45:41;4.65;;;2.95;;
43363;SDS011;40636;52.424;-1.948;2023-08-21T08:48:14;6.03;;;2.60;;
43363;SDS011;40636;52.424;-1.948;2023-08-21T08:50:44;7.07;;;2.10;;
43363;SDS011;40636;52.424;-1.948;2023-08-21T08:53:12;8.70;;;2.55;;
43363;SDS011;40636;52.424;-1.948;2023-08-21T08:55:43;7.72;;;2.30;;
43363;SDS011;40636;52.424;-1.948;2023-08-21T09:02:47;9.30;;;2.85;;
43363;SDS011;40636;52.424;-1.948;2023-08-21T09:05:28;7.40;;;3.05;;
43363;SDS011;40636;52.424;-1.948;2023-08-21T09:08:26;6.15;;;3.17;;
43363;SDS011;40636;52.424;-1.948;2023-08-21T09:10:53;4.70;;;2.65;;
43363;SDS011;40636;52.424;-1.948;2023-08-21T09:13:20;4.00;;;2.35;;
43363;SDS011;40636;52.424;-1.948;2023-08-21T09:15:48;4.32;;;2.25;;
43363;SDS011;40636;52.424;-1.948;2023-08-21T09:18:20;6.53;;;1.88;;
43363;SDS011;40636;52.424;-1.948;2023-08-21T09:20:51;4.03;;;2.28;;
43363;SDS011;40636;52.424;-1.948;2023-08-21T09:23:18;2.25;;;1.67;;
43363;SDS011;40636;52.424;-1.948;2023-08-21T09:25:48;7.60;;;1.92;;
43363;SDS011;40636;52.424;-1.948;2023-08-21T09:28:19;6.03;;;1.90;;
43363;SDS011;40636;52.424;-1.948;2023-08-21T09:30:50;4.65;;;1.48;;
43363;SDS011;40636;52.424;-1.948;2023-08-21T09:33:22;4.40;;;1.00;;
43363;SDS011;40636;52.424;-1.948;2023-08-21T09:35:53;5.05;;;1.73;;
43363;SDS011;40636;52.424;-1.948;2023-08-21T09:38:21;4.13;;;1.42;;
43363;SDS011;40636;52.424;-1.948;2023-08-21T09:40:54;3.28;;;1.48;;
43363;SDS011;40636;52.424;-1.948;2023-08-21T09:43:26;4.07;;;2.55;;
43363;SDS011;40636;52.424;-1.948;2023-08-21T09:45:54;5.82;;;2.72;;
43363;SDS011;40636;52.424;-1.948;2023-08-21T09:48:22;3.00;;;2.17;;
43363;SDS011;40636;52.424;-1.948;2023-08-21T09:50:54;2.30;;;1.20;;
43363;SDS011;40636;52.424;-1.948;2023-08-21T09:53:26;2.50;;;1.27;;
43363;SDS011;40636;52.424;-1.948;2023-08-21T09:55:54;2.42;;;1.30;;
43363;SDS011;40636;52.424;-1.948;2023-08-21T09:58:22;5.88;;;1.65;;
43363;SDS011;40636;52.424;-1.948;2023-08-21T10:00:49;5.63;;;1.50;;
43363;SDS011;40636;52.424;-1.948;2023-08-21T10:03:18;0.85;;;0.82;;
43363;SDS011;40636;52.424;-1.948;2023-08-21T10:05:47;1.15;;;1.00;;
43363;SDS011;40636;52.424;-1.948;2023-08-21T10:08:15;0.80;;;0.80;;
43363;SDS011;40636;52.424;-1.948;2023-08-21T10:10:44;2.53;;;0.90;;
43363;SDS011;40636;52.424;-1.948;2023-08-21T10:13:11;4.38;;;1.15;;
43363;SDS011;40636;52.424;-1.948;2023-08-21T10:15:38;3.90;;;1.20;;
43363;SDS011;40636;52.424;-1.948;2023-08-21T10:18:52;2.17;;;1.20;;
43363;SDS011;40636;52.424;-1.948;2023-08-21T10:21:12;2.58;;;1.10;;
43363;SDS011;40636;52.424;-1.948;2023-08-21T10:23:40;4.20;;;0.90;;
43363;SDS011;40636;52.424;-1.948;2023-08-21T10:26:14;3.47;;;1.20;;
43363;SDS011;40636;52.424;-1.948;2023-08-21T10:28:58;2.63;;;1.15;;
43363;SDS011;40636;52.424;-1.948;2023-08-21T10:37:05;3.78;;;1.00;;
43363;SDS011;40636;52.424;-1.948;2023-08-21T10:39:53;2.85;;;0.90;;
43363;SDS011;40636;52.424;-1.948;2023-08-21T10:42:38;1.55;;;0.80;;
43363;SDS011;40636;52.424;-1.948;2023-08-21T10:45:11;1.75;;;0.70;;
43363;SDS011;40636;52.424;-1.948;2023-08-21T10:47:38;1.60;;;0.95;;
43363;SDS011;40636;52.424;-1.948;2023-08-21T10:50:06;2.17;;;1.00;;
43363;SDS011;40636;52.424;-1.948;2023-08-21T10:55:14;1.98;;;1.05;;
43363;SDS011;40636;52.424;-1.948;2023-08-21T10:57:42;2.10;;;1.17;;
43363;SDS011;40636;52.424;-1.948;2023-08-21T11:00:09;2.38;;;0.77;;
43363;SDS011;40636;52.424;-1.948;2023-08-21T11:02:40;2.53;;;1.00;;
43363;SDS011;40636;52.424;-1.948;2023-08-21T11:05:11;1.35;;;0.80;;
43363;SDS011;40636;52.424;-1.948;2023-08-21T11:07:40;1.95;;;0.93;;
43363;SDS011;40636;52.424;-1.948;2023-08-21T11:10:15;4.55;;;1.30;;
43363;SDS011;40636;52.424;-1.948;2023-08-21T11:12:49;11.63;;;5.38;;
43363;SDS011;40636;52.424;-1.948;2023-08-21T11:15:18;5.80;;;1.73;;
43363;SDS011;40636;52.424;-1.948;2023-08-21T11:17:59;5.43;;;1.80;;
43363;SDS011;40636;52.424;-1.948;2023-08-21T11:20:31;2.58;;;2.08;;
43363;SDS011;40636;52.424;-1.948;2023-08-21T11:22:59;1.85;;;0.90;;
43363;SDS011;40636;52.424;-1.948;2023-08-21T11:25:37;3.45;;;1.10;;
43363;SDS011;40636;52.424;-1.948;2023-08-21T11:28:05;1.33;;;0.80;;
43363;SDS011;40636;52.424;-1.948;2023-08-21T11:30:32;0.70;;;0.70;;
43363;SDS011;40636;52.424;-1.948;2023-08-21T11:33:07;1.20;;;0.80;;
43363;SDS011;40636;52.424;-1.948;2023-08-21T11:35:41;1.05;;;0.80;;
43363;SDS011;40636;52.424;-1.948;2023-08-21T11:38:21;4.03;;;0.93;;
43363;SDS011;40636;52.424;-1.948;2023-08-21T11:43:34;2.67;;;0.80;;
43363;SDS011;40636;52.424;-1.948;2023-08-21T11:46:06;3.97;;;0.82;;
43363;SDS011;40636;52.424;-1.948;2023-08-21T11:48:36;1.33;;;0.80;;
43363;SDS011;40636;52.424;-1.948;2023-08-21T11:51:05;2.13;;;0.70;;
43363;SDS011;40636;52.424;-1.948;2023-08-21T11:53:36;2.65;;;0.95;;
43363;SDS011;40636;52.424;-1.948;2023-08-21T11:56:13;1.98;;;0.70;;
43363;SDS011;40636;52.424;-1.948;2023-08-21T11:58:43;1.63;;;0.88;;
43363;SDS011;40636;52.424;-1.948;2023-08-21T12:01:16;4.28;;;1.35;;
43363;SDS011;40636;52.424;-1.948;2023-08-21T12:03:44;0.50;;;0.50;;
43363;SDS011;40636;52.424;-1.948;2023-08-21T12:06:12;2.28;;;0.75;;
43363;SDS011;40636;52.424;-1.948;2023-08-21T12:08:39;0.82;;;0.70;;
43363;SDS011;40636;52.424;-1.948;2023-08-21T12:11:06;2.97;;;0.77;;
43363;SDS011;40636;52.424;-1.948;2023-08-21T12:13:34;0.93;;;0.80;;
43363;SDS011;40636;52.424;-1.948;2023-08-21T12:16:02;1.50;;;0.77;;
43363;SDS011;40636;52.424;-1.948;2023-08-21T12:18:29;2.80;;;0.82;;
43363;SDS011;40636;52.424;-1.948;2023-08-21T12:20:56;1.92;;;0.88;;
43363;SDS011;40636;52.424;-1.948;2023-08-21T12:23:24;2.10;;;1.00;;
43363;SDS011;40636;52.424;-1.948;2023-08-21T12:25:51;2.08;;;1.00;;
43363;SDS011;40636;52.424;-1.948;2023-08-21T12:28:22;3.95;;;0.95;;
43363;SDS011;40636;52.424;-1.948;2023-08-21T12:30:51;1.38;;;0.70;;
43363;SDS011;40636;52.424;-1.948;2023-08-21T12:33:18;1.40;;;0.60;;
43363;SDS011;40636;52.424;-1.948;2023-08-21T12:35:50;3.10;;;0.73;;
43363;SDS011;40636;52.424;-1.948;2023-08-21T12:38:18;3.25;;;0.93;;
43363;SDS011;40636;52.424;-1.948;2023-08-21T12:40:47;2.05;;;0.70;;
43363;SDS011;40636;52.424;-1.948;2023-08-21T12:43:14;0.88;;;0.60;;
43363;SDS011;40636;52.424;-1.948;2023-08-21T12:45:40;4.38;;;0.80;;
43363;SDS011;40636;52.424;-1.948;2023-08-21T12:48:10;1.60;;;0.77;;
43363;SDS011;40636;52.424;-1.948;2023-08-21T12:50:37;0.82;;;0.70;;
43363;SDS011;40636;52.424;-1.948;2023-08-21T12:53:04;1.02;;;0.77;;
43363;SDS011;40636;52.424;-1.948;2023-08-21T12:55:31;2.97;;;0.90;;
43363;SDS011;40636;52.424;-1.948;2023-08-21T12:58:02;4.55;;;1.45;;
43363;SDS011;40636;52.424;-1.948;2023-08-21T13:00:29;3.88;;;1.25;;
43363;SDS011;40636;52.424;-1.948;2023-08-21T13:02:56;2.67;;;0.73;;
43363;SDS011;40636;52.424;-1.948;2023-08-21T13:05:31;3.70;;;1.25;;
43363;SDS011;40636;52.424;-1.948;2023-08-21T13:07:58;1.55;;;0.60;;
43363;SDS011;40636;52.424;-1.948;2023-08-21T13:10:24;2.08;;;0.65;;
43363;SDS011;40636;52.424;-1.948;2023-08-21T13:12:51;4.25;;;1.38;;
43363;SDS011;40636;52.424;-1.948;2023-08-21T13:15:18;3.85;;;1.20;;
43363;SDS011;40636;52.424;-1.948;2023-08-21T13:17:47;3.83;;;0.95;;
43363;SDS011;40636;52.424;-1.948;2023-08-21T13:20:17;6.18;;;1.30;;
43363;SDS011;40636;52.424;-1.948;2023-08-21T13:22:51;2.72;;;0.90;;
43363;SDS011;40636;52.424;-1.948;2023-08-21T13:25:19;1.38;;;0.68;;
43363;SDS011;40636;52.424;-1.948;2023-08-21T13:27:49;1.35;;;0.90;;
43363;SDS011;40636;52.424;-1.948;2023-08-21T13:30:17;2.50;;;0.85;;
43363;SDS011;40636;52.424;-1.948;2023-08-21T13:32:44;2.28;;;0.80;;
43363;SDS011;40636;52.424;-1.948;2023-08-21T13:35:11;1.55;;;0.77;;
43363;SDS011;40636;52.424;-1.948;2023-08-21T13:37:39;3.15;;;1.70;;
43363;SDS011;40636;52.424;-1.948;2023-08-21T13:40:07;1.85;;;0.70;;
43363;SDS011;40636;52.424;-1.948;2023-08-21T13:42:43;2.65;;;1.00;;
43363;SDS011;40636;52.424;-1.948;2023-08-21T13:45:19;4.30;;;1.10;;
43363;SDS011;40636;52.424;-1.948;2023-08-21T13:47:47;2.97;;;1.50;;
43363;SDS011;40636;52.424;-1.948;2023-08-21T13:50:16;1.73;;;0.88;;
43363;SDS011;40636;52.424;-1.948;2023-08-21T13:52:45;1.02;;;0.88;;
43363;SDS011;40636;52.424;-1.948;2023-08-21T13:55:15;1.45;;;0.75;;
43363;SDS011;40636;52.424;-1.948;2023-08-21T13:57:44;3.08;;;0.80;;
43363;SDS011;40636;52.424;-1.948;2023-08-21T14:00:11;1.90;;;0.85;;
43363;SDS011;40636;52.424;-1.948;2023-08-21T14:02:39;0.80;;;0.80;;
43363;SDS011;40636;52.424;-1.948;2023-08-21T14:05:08;0.93;;;0.88;;
43363;SDS011;40636;52.424;-1.948;2023-08-21T14:07:37;1.67;;;0.82;;
43363;SDS011;40636;52.424;-1.948;2023-08-21T14:10:06;0.98;;;0.70;;
43363;SDS011;40636;52.424;-1.948;2023-08-21T14:12:33;5.15;;;1.13;;
43363;SDS011;40636;52.424;-1.948;2023-08-21T14:15:04;2.97;;;0.93;;
43363;SDS011;40636;52.424;-1.948;2023-08-21T14:17:32;2.70;;;0.93;;
43363;SDS011;40636;52.424;-1.948;2023-08-21T14:19:59;3.92;;;0.90;;
43363;SDS011;40636;52.424;-1.948;2023-08-21T14:22:25;0.98;;;0.52;;
43363;SDS011;40636;52.424;-1.948;2023-08-21T14:24:52;1.35;;;0.63;;
43363;SDS011;40636;52.424;-1.948;2023-08-21T14:27:21;3.80;;;1.30;;
43363;SDS011;40636;52.424;-1.948;2023-08-21T14:29:48;1.45;;;0.77;;
43363;SDS011;40636;52.424;-1.948;2023-08-21T14:32:16;1.48;;;1.05;;
43363;SDS011;40636;52.424;-1.948;2023-08-21T14:34:42;1.35;;;0.60;;
43363;SDS011;40636;52.424;-1.948;2023-08-21T14:37:12;1.70;;;0.70;;
43363;SDS011;40636;52.424;-1.948;2023-08-21T14:39:42;1.85;;;1.00;;
43363;SDS011;40636;52.424;-1.948;2023-08-21T14:42:14;1.25;;;0.77;;
43363;SDS011;40636;52.424;-1.948;2023-08-21T14:44:41;2.10;;;0.82;;
43363;SDS011;40636;52.424;-1.948;2023-08-21T14:47:08;3.25;;;0.70;;
43363;SDS011;40636;52.424;-1.948;2023-08-21T14:49:35;2.65;;;1.05;;
43363;SDS011;40636;52.424;-1.948;2023-08-21T14:52:03;3.40;;;1.08;;
43363;SDS011;40636;52.424;-1.948;2023-08-21T14:54:30;5.72;;;1.35;;
43363;SDS011;40636;52.424;-1.948;2023-08-21T14:56:57;3.88;;;0.93;;
43363;SDS011;40636;52.424;-1.948;2023-08-21T14:59:24;3.60;;;1.27;;
43363;SDS011;40636;52.424;-1.948;2023-08-21T15:01:51;2.20;;;0.93;;
43363;SDS011;40636;52.424;-1.948;2023-08-21T15:04:18;2.95;;;0.90;;
43363;SDS011;40636;52.424;-1.948;2023-08-21T15:06:45;1.75;;;0.85;;
43363;SDS011;40636;52.424;-1.948;2023-08-21T15:09:14;2.10;;;0.80;;
43363;SDS011;40636;52.424;-1.948;2023-08-21T15:11:41;1.33;;;0.85;;
43363;SDS011;40636;52.424;-1.948;2023-08-21T15:14:09;1.45;;;0.98;;
43363;SDS011;40636;52.424;-1.948;2023-08-21T15:16:41;2.67;;;0.70;;